aviador You're here:

LFMV Decoded Metar

AVIGNON in FRANCE
Report Time2017-11-22 05:00:00
UTC Time2017-11-22 05:28:28
Flight Rules vfr VFR
Wind360° at 03 kt
W.Decomp.*RWY 35: 3.0 kt HW 0.5 kt RCW
Visibility9999 m
Phenomena:N/A
Clouds:N/A
Expected CloudBase > 400 ft AGL from Temp-Dew spread
CeilingNone
Temp02°C (ISA -13)
Dew Point01°C (93% RH)
AAT-0.9°C
QNH1019 hPa
Density Alt-1,542 ft
Elevation125 ft
Report Wrong Elevation
Raw Report
LFMV 220500Z AUTO 36003KT CAVOK 02/01 Q1019 NOSIG=

Extra information for LFMV:More info

Metar Taf Metar & Taf Last 4 Metars F.Rules Stats Wind Profile Meteogram Temp Stats Airport Information Weather charts Add Link Nearby VenuesMetar ALERT Operation Metar Decoded Social comments